sensor_id;sensor_type;location;lat;lon;timestamp;P1;durP1;ratioP1;P2;durP2;ratioP2
26098;SDS011;13860;52.370;6.764;2024-01-27T00:02:24;17.75;;;3.20;;
26098;SDS011;13860;52.370;6.764;2024-01-27T00:05:29;23.35;;;3.25;;
26098;SDS011;13860;52.370;6.764;2024-01-27T00:08:40;22.92;;;3.47;;
26098;SDS011;13860;52.370;6.764;2024-01-27T00:11:45;18.27;;;3.15;;
26098;SDS011;13860;52.370;6.764;2024-01-27T00:14:53;34.42;;;3.65;;
26098;SDS011;13860;52.370;6.764;2024-01-27T00:17:58;14.23;;;3.05;;
26098;SDS011;13860;52.370;6.764;2024-01-27T00:21:06;15.82;;;3.40;;
26098;SDS011;13860;52.370;6.764;2024-01-27T00:24:15;18.33;;;3.40;;
26098;SDS011;13860;52.370;6.764;2024-01-27T00:27:23;22.40;;;4.03;;
26098;SDS011;13860;52.370;6.764;2024-01-27T00:30:29;15.02;;;3.17;;
26098;SDS011;13860;52.370;6.764;2024-01-27T00:33:36;14.77;;;3.22;;
26098;SDS011;13860;52.370;6.764;2024-01-27T00:36:42;29.02;;;3.80;;
26098;SDS011;13860;52.370;6.764;2024-01-27T00:39:55;19.17;;;4.30;;
26098;SDS011;13860;52.370;6.764;2024-01-27T00:43:02;29.00;;;4.18;;
26098;SDS011;13860;52.370;6.764;2024-01-27T00:46:10;24.95;;;4.68;;
26098;SDS011;13860;52.370;6.764;2024-01-27T00:49:15;21.58;;;3.15;;
26098;SDS011;13860;52.370;6.764;2024-01-27T00:52:25;32.92;;;4.00;;
26098;SDS011;13860;52.370;6.764;2024-01-27T00:55:33;23.98;;;3.25;;
26098;SDS011;13860;52.370;6.764;2024-01-27T00:58:40;24.55;;;2.92;;
26098;SDS011;13860;52.370;6.764;2024-01-27T01:01:46;19.20;;;4.15;;
26098;SDS011;13860;52.370;6.764;2024-01-27T01:04:53;21.70;;;4.28;;
26098;SDS011;13860;52.370;6.764;2024-01-27T01:07:59;12.57;;;3.30;;
26098;SDS011;13860;52.370;6.764;2024-01-27T01:11:13;16.17;;;3.17;;
26098;SDS011;13860;52.370;6.764;2024-01-27T01:14:18;19.95;;;3.33;;
26098;SDS011;13860;52.370;6.764;2024-01-27T01:17:26;22.15;;;3.80;;
26098;SDS011;13860;52.370;6.764;2024-01-27T01:20:32;28.48;;;4.28;;
26098;SDS011;13860;52.370;6.764;2024-01-27T01:23:39;19.02;;;5.22;;
26098;SDS011;13860;52.370;6.764;2024-01-27T01:26:47;21.75;;;3.47;;
26098;SDS011;13860;52.370;6.764;2024-01-27T01:29:55;11.43;;;3.45;;
26098;SDS011;13860;52.370;6.764;2024-01-27T01:33:01;25.60;;;3.85;;
26098;SDS011;13860;52.370;6.764;2024-01-27T01:36:09;17.08;;;3.50;;
26098;SDS011;13860;52.370;6.764;2024-01-27T01:39:15;20.95;;;3.28;;
26098;SDS011;13860;52.370;6.764;2024-01-27T01:42:26;25.55;;;3.35;;
26098;SDS011;13860;52.370;6.764;2024-01-27T01:45:43;19.50;;;3.88;;
26098;SDS011;13860;52.370;6.764;2024-01-27T01:48:51;25.90;;;4.32;;
26098;SDS011;13860;52.370;6.764;2024-01-27T01:51:57;14.13;;;3.47;;
26098;SDS011;13860;52.370;6.764;2024-01-27T01:55:05;19.58;;;3.13;;
26098;SDS011;13860;52.370;6.764;2024-01-27T01:58:13;26.50;;;4.88;;
26098;SDS011;13860;52.370;6.764;2024-01-27T02:01:43;19.10;;;3.03;;
26098;SDS011;13860;52.370;6.764;2024-01-27T02:04:49;20.98;;;3.47;;
26098;SDS011;13860;52.370;6.764;2024-01-27T02:07:56;20.63;;;3.50;;
26098;SDS011;13860;52.370;6.764;2024-01-27T02:11:03;30.20;;;3.70;;
26098;SDS011;13860;52.370;6.764;2024-01-27T02:14:11;24.65;;;3.65;;
26098;SDS011;13860;52.370;6.764;2024-01-27T02:17:21;32.80;;;4.80;;
26098;SDS011;13860;52.370;6.764;2024-01-27T02:20:29;22.92;;;3.22;;
26098;SDS011;13860;52.370;6.764;2024-01-27T02:23:39;21.63;;;3.05;;
26098;SDS011;13860;52.370;6.764;2024-01-27T02:26:49;17.70;;;3.05;;
26098;SDS011;13860;52.370;6.764;2024-01-27T02:29:54;20.95;;;3.75;;
26098;SDS011;13860;52.370;6.764;2024-01-27T02:33:02;18.17;;;4.13;;
26098;SDS011;13860;52.370;6.764;2024-01-27T02:36:09;13.68;;;3.30;;
26098;SDS011;13860;52.370;6.764;2024-01-27T02:39:16;24.80;;;4.15;;
26098;SDS011;13860;52.370;6.764;2024-01-27T02:42:25;16.00;;;3.72;;
26098;SDS011;13860;52.370;6.764;2024-01-27T02:45:44;16.98;;;3.20;;
26098;SDS011;13860;52.370;6.764;2024-01-27T02:48:50;20.13;;;3.45;;
26098;SDS011;13860;52.370;6.764;2024-01-27T02:51:58;20.38;;;3.58;;
26098;SDS011;13860;52.370;6.764;2024-01-27T02:55:05;11.45;;;3.58;;
26098;SDS011;13860;52.370;6.764;2024-01-27T02:58:16;22.70;;;4.68;;
26098;SDS011;13860;52.370;6.764;2024-01-27T03:01:21;26.83;;;4.28;;
26098;SDS011;13860;52.370;6.764;2024-01-27T03:04:29;15.52;;;2.92;;
26098;SDS011;13860;52.370;6.764;2024-01-27T03:07:34;18.73;;;3.70;;
26098;SDS011;13860;52.370;6.764;2024-01-27T03:10:42;14.32;;;3.92;;
26098;SDS011;13860;52.370;6.764;2024-01-27T03:13:50;20.73;;;3.63;;
26098;SDS011;13860;52.370;6.764;2024-01-27T03:16:58;23.55;;;3.45;;
26098;SDS011;13860;52.370;6.764;2024-01-27T03:20:04;18.70;;;4.50;;
26098;SDS011;13860;52.370;6.764;2024-01-27T03:23:13;30.25;;;4.25;;
26098;SDS011;13860;52.370;6.764;2024-01-27T03:26:18;18.95;;;4.03;;
26098;SDS011;13860;52.370;6.764;2024-01-27T03:29:28;18.98;;;3.42;;
26098;SDS011;13860;52.370;6.764;2024-01-27T03:32:34;19.25;;;3.95;;
26098;SDS011;13860;52.370;6.764;2024-01-27T03:35:41;20.65;;;4.20;;
26098;SDS011;13860;52.370;6.764;2024-01-27T03:38:47;21.13;;;4.50;;
26098;SDS011;13860;52.370;6.764;2024-01-27T03:41:55;24.70;;;4.47;;
26098;SDS011;13860;52.370;6.764;2024-01-27T03:45:03;22.83;;;3.63;;
26098;SDS011;13860;52.370;6.764;2024-01-27T03:48:11;19.85;;;3.63;;
26098;SDS011;13860;52.370;6.764;2024-01-27T03:51:19;21.23;;;3.90;;
26098;SDS011;13860;52.370;6.764;2024-01-27T03:54:27;14.93;;;4.82;;
26098;SDS011;13860;52.370;6.764;2024-01-27T03:57:32;14.75;;;3.80;;
26098;SDS011;13860;52.370;6.764;2024-01-27T04:00:43;14.50;;;3.90;;
26098;SDS011;13860;52.370;6.764;2024-01-27T04:03:48;20.10;;;3.88;;
26098;SDS011;13860;52.370;6.764;2024-01-27T04:06:56;23.10;;;4.57;;
26098;SDS011;13860;52.370;6.764;2024-01-27T04:10:04;16.05;;;4.10;;
26098;SDS011;13860;52.370;6.764;2024-01-27T04:13:13;19.40;;;4.03;;
26098;SDS011;13860;52.370;6.764;2024-01-27T04:16:21;20.38;;;5.50;;
26098;SDS011;13860;52.370;6.764;2024-01-27T04:19:28;22.77;;;5.00;;
26098;SDS011;13860;52.370;6.764;2024-01-27T04:22:34;29.63;;;5.20;;
26098;SDS011;13860;52.370;6.764;2024-01-27T04:25:42;19.38;;;4.97;;
26098;SDS011;13860;52.370;6.764;2024-01-27T04:28:48;25.70;;;3.88;;
26098;SDS011;13860;52.370;6.764;2024-01-27T04:31:58;21.02;;;5.00;;
26098;SDS011;13860;52.370;6.764;2024-01-27T04:35:04;18.52;;;4.65;;
26098;SDS011;13860;52.370;6.764;2024-01-27T04:38:15;18.60;;;4.75;;
26098;SDS011;13860;52.370;6.764;2024-01-27T04:41:20;23.77;;;4.43;;
26098;SDS011;13860;52.370;6.764;2024-01-27T04:44:28;24.58;;;4.28;;
26098;SDS011;13860;52.370;6.764;2024-01-27T04:47:36;18.13;;;4.82;;
26098;SDS011;13860;52.370;6.764;2024-01-27T04:50:44;21.63;;;4.75;;
26098;SDS011;13860;52.370;6.764;2024-01-27T04:53:50;14.35;;;4.10;;
26098;SDS011;13860;52.370;6.764;2024-01-27T04:56:57;15.70;;;4.95;;
26098;SDS011;13860;52.370;6.764;2024-01-27T05:00:03;21.05;;;4.95;;
26098;SDS011;13860;52.370;6.764;2024-01-27T05:03:19;10.70;;;4.43;;
26098;SDS011;13860;52.370;6.764;2024-01-27T05:06:25;22.98;;;4.35;;
26098;SDS011;13860;52.370;6.764;2024-01-27T05:09:33;17.40;;;4.85;;
26098;SDS011;13860;52.370;6.764;2024-01-27T05:12:39;31.70;;;5.70;;
26098;SDS011;13860;52.370;6.764;2024-01-27T05:15:47;25.27;;;4.05;;
26098;SDS011;13860;52.370;6.764;2024-01-27T05:18:55;26.65;;;5.82;;
26098;SDS011;13860;52.370;6.764;2024-01-27T05:22:03;22.02;;;4.85;;
26098;SDS011;13860;52.370;6.764;2024-01-27T05:25:09;18.33;;;4.93;;
26098;SDS011;13860;52.370;6.764;2024-01-27T05:28:16;22.17;;;4.40;;
26098;SDS011;13860;52.370;6.764;2024-01-27T05:31:22;17.70;;;4.32;;
26098;SDS011;13860;52.370;6.764;2024-01-27T05:34:33;18.75;;;4.28;;
26098;SDS011;13860;52.370;6.764;2024-01-27T05:37:38;15.70;;;5.78;;
26098;SDS011;13860;52.370;6.764;2024-01-27T05:40:46;18.50;;;5.53;;
26098;SDS011;13860;52.370;6.764;2024-01-27T05:43:53;23.38;;;4.55;;
26098;SDS011;13860;52.370;6.764;2024-01-27T05:47:00;18.80;;;4.32;;
26098;SDS011;13860;52.370;6.764;2024-01-27T05:50:12;18.48;;;4.63;;
26098;SDS011;13860;52.370;6.764;2024-01-27T05:53:19;19.58;;;4.85;;
26098;SDS011;13860;52.370;6.764;2024-01-27T05:56:25;31.83;;;5.82;;
26098;SDS011;13860;52.370;6.764;2024-01-27T05:59:32;31.60;;;5.32;;
26098;SDS011;13860;52.370;6.764;2024-01-27T06:02:38;21.23;;;5.35;;
26098;SDS011;13860;52.370;6.764;2024-01-27T06:05:48;25.05;;;6.07;;
26098;SDS011;13860;52.370;6.764;2024-01-27T06:08:53;19.27;;;5.45;;
26098;SDS011;13860;52.370;6.764;2024-01-27T06:12:01;14.77;;;5.30;;
26098;SDS011;13860;52.370;6.764;2024-01-27T06:15:07;26.25;;;5.82;;
26098;SDS011;13860;52.370;6.764;2024-01-27T06:18:16;17.00;;;4.88;;
26098;SDS011;13860;52.370;6.764;2024-01-27T06:21:24;17.13;;;4.82;;
26098;SDS011;13860;52.370;6.764;2024-01-27T06:24:32;26.63;;;5.47;;
26098;SDS011;13860;52.370;6.764;2024-01-27T06:27:38;19.80;;;5.78;;
26098;SDS011;13860;52.370;6.764;2024-01-27T06:30:46;24.23;;;5.65;;
26098;SDS011;13860;52.370;6.764;2024-01-27T06:33:51;22.92;;;7.07;;
26098;SDS011;13860;52.370;6.764;2024-01-27T06:37:02;22.88;;;5.25;;
26098;SDS011;13860;52.370;6.764;2024-01-27T06:40:08;24.27;;;5.20;;
26098;SDS011;13860;52.370;6.764;2024-01-27T06:43:16;22.63;;;5.30;;
26098;SDS011;13860;52.370;6.764;2024-01-27T06:46:21;23.13;;;5.72;;
26098;SDS011;13860;52.370;6.764;2024-01-27T06:49:29;27.60;;;5.53;;
26098;SDS011;13860;52.370;6.764;2024-01-27T06:52:38;24.17;;;6.28;;
26098;SDS011;13860;52.370;6.764;2024-01-27T06:55:45;24.75;;;6.15;;
26098;SDS011;13860;52.370;6.764;2024-01-27T06:58:51;19.33;;;5.40;;
26098;SDS011;13860;52.370;6.764;2024-01-27T07:01:58;24.55;;;5.70;;
26098;SDS011;13860;52.370;6.764;2024-01-27T07:05:04;17.00;;;5.65;;
26098;SDS011;13860;52.370;6.764;2024-01-27T07:08:15;23.02;;;6.95;;
26098;SDS011;13860;52.370;6.764;2024-01-27T07:11:20;36.85;;;6.60;;
26098;SDS011;13860;52.370;6.764;2024-01-27T07:14:28;26.00;;;7.40;;
26098;SDS011;13860;52.370;6.764;2024-01-27T07:17:33;24.58;;;7.03;;
26098;SDS011;13860;52.370;6.764;2024-01-27T07:20:41;18.02;;;6.20;;
26098;SDS011;13860;52.370;6.764;2024-01-27T07:23:49;21.42;;;6.68;;
26098;SDS011;13860;52.370;6.764;2024-01-27T07:26:59;28.30;;;6.47;;
26098;SDS011;13860;52.370;6.764;2024-01-27T07:30:06;15.35;;;6.55;;
26098;SDS011;13860;52.370;6.764;2024-01-27T07:33:15;21.27;;;6.63;;
26098;SDS011;13860;52.370;6.764;2024-01-27T07:36:21;17.48;;;5.50;;
26098;SDS011;13860;52.370;6.764;2024-01-27T07:39:32;25.60;;;6.65;;
26098;SDS011;13860;52.370;6.764;2024-01-27T07:42:38;24.05;;;6.70;;
26098;SDS011;13860;52.370;6.764;2024-01-27T07:45:46;24.63;;;6.40;;
26098;SDS011;13860;52.370;6.764;2024-01-27T07:48:54;17.85;;;6.65;;
26098;SDS011;13860;52.370;6.764;2024-01-27T07:52:02;23.33;;;7.63;;
26098;SDS011;13860;52.370;6.764;2024-01-27T07:55:12;31.08;;;8.05;;
26098;SDS011;13860;52.370;6.764;2024-01-27T07:58:21;24.45;;;7.53;;
26098;SDS011;13860;52.370;6.764;2024-01-27T08:01:26;28.75;;;7.55;;
26098;SDS011;13860;52.370;6.764;2024-01-27T08:04:34;23.55;;;8.20;;
26098;SDS011;13860;52.370;6.764;2024-01-27T08:07:40;27.45;;;8.52;;
26098;SDS011;13860;52.370;6.764;2024-01-27T08:10:50;24.45;;;8.43;;
26098;SDS011;13860;52.370;6.764;2024-01-27T08:13:55;29.98;;;8.75;;
26098;SDS011;13860;52.370;6.764;2024-01-27T08:17:06;21.13;;;7.18;;
26098;SDS011;13860;52.370;6.764;2024-01-27T08:20:12;23.33;;;8.45;;
26098;SDS011;13860;52.370;6.764;2024-01-27T08:23:19;33.75;;;8.18;;
26098;SDS011;13860;52.370;6.764;2024-01-27T08:26:27;29.42;;;8.73;;
26098;SDS011;13860;52.370;6.764;2024-01-27T08:29:35;25.73;;;8.20;;
26098;SDS011;13860;52.370;6.764;2024-01-27T08:32:40;30.42;;;8.95;;
26098;SDS011;13860;52.370;6.764;2024-01-27T08:35:48;21.42;;;8.52;;
26098;SDS011;13860;52.370;6.764;2024-01-27T08:38:54;27.45;;;8.80;;
26098;SDS011;13860;52.370;6.764;2024-01-27T08:42:04;28.90;;;9.43;;
26098;SDS011;13860;52.370;6.764;2024-01-27T08:45:10;34.50;;;9.40;;
26098;SDS011;13860;52.370;6.764;2024-01-27T08:48:19;29.25;;;8.77;;
26098;SDS011;13860;52.370;6.764;2024-01-27T08:51:24;24.08;;;8.50;;
26098;SDS011;13860;52.370;6.764;2024-01-27T08:54:32;30.38;;;9.45;;
26098;SDS011;13860;52.370;6.764;2024-01-27T08:57:43;23.27;;;8.18;;
26098;SDS011;13860;52.370;6.764;2024-01-27T09:00:51;34.20;;;9.25;;
26098;SDS011;13860;52.370;6.764;2024-01-27T09:03:57;24.13;;;9.73;;
26098;SDS011;13860;52.370;6.764;2024-01-27T09:07:06;21.38;;;8.45;;
26098;SDS011;13860;52.370;6.764;2024-01-27T09:10:11;46.75;;;9.93;;
26098;SDS011;13860;52.370;6.764;2024-01-27T09:13:22;28.70;;;8.73;;
26098;SDS011;13860;52.370;6.764;2024-01-27T09:16:27;27.63;;;9.35;;
26098;SDS011;13860;52.370;6.764;2024-01-27T09:19:35;25.48;;;9.02;;
26098;SDS011;13860;52.370;6.764;2024-01-27T09:22:44;25.15;;;9.55;;
26098;SDS011;13860;52.370;6.764;2024-01-27T09:25:53;26.60;;;9.18;;
26098;SDS011;13860;52.370;6.764;2024-01-27T09:29:01;29.13;;;8.35;;
26098;SDS011;13860;52.370;6.764;2024-01-27T09:32:09;32.58;;;8.13;;
26098;SDS011;13860;52.370;6.764;2024-01-27T09:35:14;18.77;;;7.70;;
26098;SDS011;13860;52.370;6.764;2024-01-27T09:38:22;33.88;;;9.23;;
26098;SDS011;13860;52.370;6.764;2024-01-27T09:41:28;47.42;;;8.65;;
26098;SDS011;13860;52.370;6.764;2024-01-27T09:44:40;25.75;;;7.97;;
26098;SDS011;13860;52.370;6.764;2024-01-27T09:47:48;31.88;;;8.52;;
26098;SDS011;13860;52.370;6.764;2024-01-27T09:50:58;24.00;;;8.45;;
26098;SDS011;13860;52.370;6.764;2024-01-27T09:54:04;28.30;;;7.85;;
26098;SDS011;13860;52.370;6.764;2024-01-27T09:57:12;30.83;;;7.57;;
26098;SDS011;13860;52.370;6.764;2024-01-27T10:00:25;21.98;;;7.93;;
26098;SDS011;13860;52.370;6.764;2024-01-27T10:03:34;24.73;;;9.07;;
26098;SDS011;13860;52.370;6.764;2024-01-27T10:06:43;24.80;;;8.05;;
26098;SDS011;13860;52.370;6.764;2024-01-27T10:09:52;34.40;;;9.45;;
26098;SDS011;13860;52.370;6.764;2024-01-27T10:13:02;37.63;;;8.77;;
26098;SDS011;13860;52.370;6.764;2024-01-27T10:16:13;34.85;;;10.13;;
26098;SDS011;13860;52.370;6.764;2024-01-27T10:19:19;36.45;;;9.43;;
26098;SDS011;13860;52.370;6.764;2024-01-27T10:22:36;29.77;;;8.77;;
26098;SDS011;13860;52.370;6.764;2024-01-27T10:25:43;29.67;;;8.25;;
26098;SDS011;13860;52.370;6.764;2024-01-27T10:28:53;27.85;;;9.55;;
26098;SDS011;13860;52.370;6.764;2024-01-27T10:32:10;26.70;;;9.25;;
26098;SDS011;13860;52.370;6.764;2024-01-27T10:35:24;31.10;;;9.43;;
26098;SDS011;13860;52.370;6.764;2024-01-27T10:38:36;31.08;;;8.35;;
26098;SDS011;13860;52.370;6.764;2024-01-27T10:41:44;26.05;;;7.65;;
26098;SDS011;13860;52.370;6.764;2024-01-27T10:45:00;23.83;;;8.02;;
26098;SDS011;13860;52.370;6.764;2024-01-27T10:48:11;28.55;;;8.18;;
26098;SDS011;13860;52.370;6.764;2024-01-27T10:51:18;23.85;;;8.05;;
26098;SDS011;13860;52.370;6.764;2024-01-27T10:54:33;23.38;;;8.75;;
26098;SDS011;13860;52.370;6.764;2024-01-27T10:57:40;20.95;;;7.15;;
26098;SDS011;13860;52.370;6.764;2024-01-27T11:00:51;25.67;;;7.22;;
26098;SDS011;13860;52.370;6.764;2024-01-27T11:04:00;22.77;;;6.43;;
26098;SDS011;13860;52.370;6.764;2024-01-27T11:07:10;16.15;;;5.70;;
26098;SDS011;13860;52.370;6.764;2024-01-27T11:10:16;26.27;;;6.70;;
26098;SDS011;13860;52.370;6.764;2024-01-27T11:13:24;19.88;;;6.45;;
26098;SDS011;13860;52.370;6.764;2024-01-27T11:16:32;30.55;;;6.88;;
26098;SDS011;13860;52.370;6.764;2024-01-27T11:19:45;16.33;;;6.03;;
26098;SDS011;13860;52.370;6.764;2024-01-27T11:22:52;21.73;;;7.00;;
26098;SDS011;13860;52.370;6.764;2024-01-27T11:26:17;33.20;;;7.03;;
26098;SDS011;13860;52.370;6.764;2024-01-27T11:29:25;20.95;;;5.32;;
26098;SDS011;13860;52.370;6.764;2024-01-27T11:32:33;17.50;;;6.15;;
26098;SDS011;13860;52.370;6.764;2024-01-27T11:35:59;24.65;;;6.45;;
26098;SDS011;13860;52.370;6.764;2024-01-27T11:39:22;13.25;;;6.25;;
26098;SDS011;13860;52.370;6.764;2024-01-27T11:42:36;20.77;;;5.68;;
26098;SDS011;13860;52.370;6.764;2024-01-27T11:45:54;13.82;;;5.45;;
26098;SDS011;13860;52.370;6.764;2024-01-27T11:49:00;18.17;;;4.63;;
26098;SDS011;13860;52.370;6.764;2024-01-27T11:52:11;16.77;;;5.43;;
26098;SDS011;13860;52.370;6.764;2024-01-27T11:55:17;21.67;;;4.72;;
26098;SDS011;13860;52.370;6.764;2024-01-27T11:58:25;32.10;;;7.10;;
26098;SDS011;13860;52.370;6.764;2024-01-27T12:01:32;16.73;;;5.68;;
26098;SDS011;13860;52.370;6.764;2024-01-27T12:04:46;23.55;;;5.43;;
26098;SDS011;13860;52.370;6.764;2024-01-27T12:07:55;14.82;;;4.50;;
26098;SDS011;13860;52.370;6.764;2024-01-27T12:11:03;21.77;;;5.03;;
26098;SDS011;13860;52.370;6.764;2024-01-27T12:14:09;19.25;;;4.50;;
26098;SDS011;13860;52.370;6.764;2024-01-27T12:17:19;17.25;;;3.63;;
26098;SDS011;13860;52.370;6.764;2024-01-27T12:20:27;14.05;;;4.95;;
26098;SDS011;13860;52.370;6.764;2024-01-27T12:23:37;26.75;;;5.18;;
26098;SDS011;13860;52.370;6.764;2024-01-27T12:26:55;21.65;;;5.30;;
26098;SDS011;13860;52.370;6.764;2024-01-27T12:30:04;20.02;;;4.60;;
26098;SDS011;13860;52.370;6.764;2024-01-27T12:33:11;13.27;;;4.53;;
26098;SDS011;13860;52.370;6.764;2024-01-27T12:36:22;18.05;;;4.68;;
26098;SDS011;13860;52.370;6.764;2024-01-27T12:39:30;13.88;;;4.57;;
26098;SDS011;13860;52.370;6.764;2024-01-27T12:42:38;21.05;;;5.07;;
26098;SDS011;13860;52.370;6.764;2024-01-27T12:45:43;21.05;;;5.53;;
26098;SDS011;13860;52.370;6.764;2024-01-27T12:48:51;22.33;;;4.57;;
26098;SDS011;13860;52.370;6.764;2024-01-27T12:51:57;37.63;;;6.53;;
26098;SDS011;13860;52.370;6.764;2024-01-27T12:55:07;33.65;;;5.05;;
26098;SDS011;13860;52.370;6.764;2024-01-27T12:58:13;18.10;;;4.07;;
26098;SDS011;13860;52.370;6.764;2024-01-27T13:01:21;27.67;;;5.28;;
26098;SDS011;13860;52.370;6.764;2024-01-27T13:04:27;27.92;;;4.38;;
26098;SDS011;13860;52.370;6.764;2024-01-27T13:07:34;26.10;;;4.57;;
26098;SDS011;13860;52.370;6.764;2024-01-27T13:10:43;30.20;;;5.63;;
26098;SDS011;13860;52.370;6.764;2024-01-27T13:13:51;16.42;;;4.63;;
26098;SDS011;13860;52.370;6.764;2024-01-27T13:16:56;16.95;;;4.18;;
26098;SDS011;13860;52.370;6.764;2024-01-27T13:20:04;22.00;;;5.03;;
26098;SDS011;13860;52.370;6.764;2024-01-27T13:23:11;15.35;;;4.18;;
26098;SDS011;13860;52.370;6.764;2024-01-27T13:26:21;18.88;;;4.63;;
26098;SDS011;13860;52.370;6.764;2024-01-27T13:29:28;17.73;;;5.00;;
26098;SDS011;13860;52.370;6.764;2024-01-27T13:32:36;25.67;;;6.35;;
26098;SDS011;13860;52.370;6.764;2024-01-27T13:35:42;17.17;;;5.25;;
26098;SDS011;13860;52.370;6.764;2024-01-27T13:38:50;26.30;;;4.60;;
26098;SDS011;13860;52.370;6.764;2024-01-27T13:41:59;19.48;;;4.80;;
26098;SDS011;13860;52.370;6.764;2024-01-27T13:45:07;22.52;;;4.28;;
26098;SDS011;13860;52.370;6.764;2024-01-27T13:48:13;23.13;;;4.30;;
26098;SDS011;13860;52.370;6.764;2024-01-27T13:51:21;20.65;;;4.20;;
26098;SDS011;13860;52.370;6.764;2024-01-27T13:54:27;21.55;;;3.70;;
26098;SDS011;13860;52.370;6.764;2024-01-27T13:57:38;13.07;;;3.92;;
26098;SDS011;13860;52.370;6.764;2024-01-27T14:00:44;14.32;;;3.90;;
26098;SDS011;13860;52.370;6.764;2024-01-27T14:03:51;15.25;;;3.85;;
26098;SDS011;13860;52.370;6.764;2024-01-27T14:06:57;17.67;;;5.22;;
26098;SDS011;13860;52.370;6.764;2024-01-27T14:10:09;21.00;;;4.22;;
26098;SDS011;13860;52.370;6.764;2024-01-27T14:13:17;17.25;;;3.42;;
26098;SDS011;13860;52.370;6.764;2024-01-27T14:16:26;22.33;;;4.15;;
26098;SDS011;13860;52.370;6.764;2024-01-27T14:19:31;23.05;;;4.70;;
26098;SDS011;13860;52.370;6.764;2024-01-27T14:22:39;17.38;;;4.03;;
26098;SDS011;13860;52.370;6.764;2024-01-27T14:25:45;16.25;;;3.45;;
26098;SDS011;13860;52.370;6.764;2024-01-27T14:28:56;15.80;;;3.58;;
26098;SDS011;13860;52.370;6.764;2024-01-27T14:32:03;14.07;;;3.90;;
26098;SDS011;13860;52.370;6.764;2024-01-27T14:35:11;19.98;;;7.10;;
26098;SDS011;13860;52.370;6.764;2024-01-27T14:38:17;21.40;;;4.20;;
26098;SDS011;13860;52.370;6.764;2024-01-27T14:41:24;23.27;;;3.97;;
26098;SDS011;13860;52.370;6.764;2024-01-27T14:44:32;14.07;;;4.75;;
26098;SDS011;13860;52.370;6.764;2024-01-27T14:47:40;19.48;;;4.65;;
26098;SDS011;13860;52.370;6.764;2024-01-27T14:50:46;18.60;;;4.05;;
26098;SDS011;13860;52.370;6.764;2024-01-27T14:53:58;18.33;;;3.90;;
26098;SDS011;13860;52.370;6.764;2024-01-27T14:57:06;13.40;;;3.80;;
26098;SDS011;13860;52.370;6.764;2024-01-27T15:00:17;18.02;;;4.15;;
26098;SDS011;13860;52.370;6.764;2024-01-27T15:03:23;19.77;;;3.97;;
26098;SDS011;13860;52.370;6.764;2024-01-27T15:06:31;12.30;;;3.67;;
26098;SDS011;13860;52.370;6.764;2024-01-27T15:09:36;18.17;;;4.57;;
26098;SDS011;13860;52.370;6.764;2024-01-27T15:12:44;14.00;;;3.65;;
26098;SDS011;13860;52.370;6.764;2024-01-27T15:15:52;13.18;;;3.88;;
26098;SDS011;13860;52.370;6.764;2024-01-27T15:19:00;12.02;;;4.05;;
26098;SDS011;13860;52.370;6.764;2024-01-27T15:22:06;19.70;;;4.97;;
26098;SDS011;13860;52.370;6.764;2024-01-27T15:25:13;20.50;;;5.15;;
26098;SDS011;13860;52.370;6.764;2024-01-27T15:28:19;15.90;;;5.82;;
26098;SDS011;13860;52.370;6.764;2024-01-27T15:31:29;25.35;;;6.05;;
26098;SDS011;13860;52.370;6.764;2024-01-27T15:34:35;14.13;;;4.90;;
26098;SDS011;13860;52.370;6.764;2024-01-27T15:37:42;21.63;;;6.00;;
26098;SDS011;13860;52.370;6.764;2024-01-27T15:40:48;20.23;;;4.53;;
26098;SDS011;13860;52.370;6.764;2024-01-27T15:43:55;12.30;;;4.22;;
26098;SDS011;13860;52.370;6.764;2024-01-27T15:47:04;23.50;;;4.25;;
26098;SDS011;13860;52.370;6.764;2024-01-27T15:50:13;14.95;;;4.55;;
26098;SDS011;13860;52.370;6.764;2024-01-27T15:53:20;20.42;;;5.10;;
26098;SDS011;13860;52.370;6.764;2024-01-27T15:56:27;24.90;;;5.68;;
26098;SDS011;13860;52.370;6.764;2024-01-27T15:59:33;11.57;;;4.10;;
26098;SDS011;13860;52.370;6.764;2024-01-27T16:02:43;16.08;;;4.40;;
26098;SDS011;13860;52.370;6.764;2024-01-27T16:05:49;20.30;;;3.80;;
26098;SDS011;13860;52.370;6.764;2024-01-27T16:08:56;14.70;;;3.95;;
26098;SDS011;13860;52.370;6.764;2024-01-27T16:12:02;19.95;;;4.40;;
26098;SDS011;13860;52.370;6.764;2024-01-27T16:15:10;14.30;;;4.03;;
26098;SDS011;13860;52.370;6.764;2024-01-27T16:18:19;19.23;;;5.97;;
26098;SDS011;13860;52.370;6.764;2024-01-27T16:21:27;18.08;;;5.82;;
26098;SDS011;13860;52.370;6.764;2024-01-27T16:24:34;17.98;;;5.70;;
26098;SDS011;13860;52.370;6.764;2024-01-27T16:27:42;12.23;;;4.32;;
26098;SDS011;13860;52.370;6.764;2024-01-27T16:30:47;19.60;;;4.40;;
26098;SDS011;13860;52.370;6.764;2024-01-27T16:33:57;17.05;;;3.95;;
26098;SDS011;13860;52.370;6.764;2024-01-27T16:37:03;15.82;;;4.55;;
26098;SDS011;13860;52.370;6.764;2024-01-27T16:40:11;13.85;;;4.72;;
26098;SDS011;13860;52.370;6.764;2024-01-27T16:43:18;25.80;;;8.13;;
26098;SDS011;13860;52.370;6.764;2024-01-27T16:46:25;24.38;;;7.50;;
26098;SDS011;13860;52.370;6.764;2024-01-27T16:49:33;37.60;;;10.90;;
26098;SDS011;13860;52.370;6.764;2024-01-27T16:52:43;38.58;;;11.40;;
26098;SDS011;13860;52.370;6.764;2024-01-27T16:55:49;26.52;;;9.45;;
26098;SDS011;13860;52.370;6.764;2024-01-27T16:58:57;27.23;;;7.28;;
26098;SDS011;13860;52.370;6.764;2024-01-27T17:02:03;21.38;;;6.05;;
26098;SDS011;13860;52.370;6.764;2024-01-27T17:05:14;17.55;;;5.22;;
26098;SDS011;13860;52.370;6.764;2024-01-27T17:08:20;21.52;;;6.03;;
26098;SDS011;13860;52.370;6.764;2024-01-27T17:11:27;19.25;;;5.68;;
26098;SDS011;13860;52.370;6.764;2024-01-27T17:14:33;20.50;;;6.53;;
26098;SDS011;13860;52.370;6.764;2024-01-27T17:17:40;14.98;;;5.30;;
26098;SDS011;13860;52.370;6.764;2024-01-27T17:20:48;16.65;;;5.40;;
26098;SDS011;13860;52.370;6.764;2024-01-27T17:23:56;17.65;;;5.05;;
26098;SDS011;13860;52.370;6.764;2024-01-27T17:27:02;15.00;;;4.15;;
26098;SDS011;13860;52.370;6.764;2024-01-27T17:30:12;21.70;;;5.13;;
26098;SDS011;13860;52.370;6.764;2024-01-27T17:33:18;20.38;;;5.43;;
26098;SDS011;13860;52.370;6.764;2024-01-27T17:36:29;19.90;;;5.22;;
26098;SDS011;13860;52.370;6.764;2024-01-27T17:39:34;10.32;;;4.25;;
26098;SDS011;13860;52.370;6.764;2024-01-27T17:42:42;17.33;;;5.38;;
26098;SDS011;13860;52.370;6.764;2024-01-27T17:45:48;18.00;;;5.50;;
26098;SDS011;13860;52.370;6.764;2024-01-27T17:48:56;12.80;;;5.97;;
26098;SDS011;13860;52.370;6.764;2024-01-27T17:52:04;13.55;;;5.45;;
26098;SDS011;13860;52.370;6.764;2024-01-27T17:55:12;15.93;;;6.05;;
26098;SDS011;13860;52.370;6.764;2024-01-27T17:58:17;20.13;;;6.22;;
26098;SDS011;13860;52.370;6.764;2024-01-27T18:01:25;18.25;;;5.90;;
26098;SDS011;13860;52.370;6.764;2024-01-27T18:04:30;24.52;;;5.97;;
26098;SDS011;13860;52.370;6.764;2024-01-27T18:07:41;21.33;;;6.05;;
26098;SDS011;13860;52.370;6.764;2024-01-27T18:10:46;18.52;;;5.82;;
26098;SDS011;13860;52.370;6.764;2024-01-27T18:13:57;20.00;;;5.82;;
26098;SDS011;13860;52.370;6.764;2024-01-27T18:17:02;24.90;;;6.80;;
26098;SDS011;13860;52.370;6.764;2024-01-27T18:20:11;19.98;;;7.40;;
26098;SDS011;13860;52.370;6.764;2024-01-27T18:23:19;29.65;;;6.70;;
26098;SDS011;13860;52.370;6.764;2024-01-27T18:26:27;23.55;;;6.55;;
26098;SDS011;13860;52.370;6.764;2024-01-27T18:29:33;24.90;;;6.55;;
26098;SDS011;13860;52.370;6.764;2024-01-27T18:32:40;25.83;;;7.60;;
26098;SDS011;13860;52.370;6.764;2024-01-27T18:35:46;24.08;;;6.65;;